CheckWX is a tool to help pilots better visualize weather data.  It is not intended as a substitute for an official pre-flight weather briefing.

07:42:37 UTC

NWWU TAF
Touho Airport
Touho, New Caledonia
TAF NWWU 191700Z 1918/2018 VRB02KT 9999 FEW045 BECMG 1922/2001 13012KT

Jun-19@
18:00 UTC

Jun-19 @ 18:00 UTC

Jun-19@
22:00 UTC

Jun-19 @ 22:00 UTC

TAF NWWU 191700Z 1918/2018 VRB02KT 9999 FEW045

Expired

Wind
  • Variable at 2 KTS
Cloud Levels
  • Few at 4,500' AGL

Jun-19@
22:00 UTC

Jun-19 @ 22:00 UTC

Jun-20@
18:00 UTC

Jun-20 @ 18:00 UTC

BECMG 1922/2001 13012KT

Becoming

Becoming Conditions expected by Thu, Jun 20, 2019 @ 01:00 UTC

Wind
  • 130° at 12 KTS
Cloud Levels
  • Few at 4,500' AGL